sensor_id;sensor_type;location;lat;lon;timestamp;pressure;altitude;pressure_sealevel;temperature;humidity
33554;BME280;19885;42.208;24.952;2023-04-06T00:01:26;99608.19;;;4.10;74.11
33554;BME280;19885;42.208;24.952;2023-04-06T00:03:51;99627.28;;;4.17;74.85
33554;BME280;19885;42.208;24.952;2023-04-06T00:06:17;99529.72;;;3.70;75.36
33554;BME280;19885;42.208;24.952;2023-04-06T00:08:42;99471.97;;;3.32;74.03
33554;BME280;19885;42.208;24.952;2023-04-06T00:11:08;99611.78;;;4.15;74.32
33554;BME280;19885;42.208;24.952;2023-04-06T00:13:34;99609.00;;;4.09;74.52
33554;BME280;19885;42.208;24.952;2023-04-06T00:15:59;99602.84;;;4.04;74.22
33554;BME280;19885;42.208;24.952;2023-04-06T00:18:25;99615.72;;;4.04;74.77
33554;BME280;19885;42.208;24.952;2023-04-06T00:20:51;99602.72;;;4.00;74.09
33554;BME280;19885;42.208;24.952;2023-04-06T00:23:17;99491.97;;;3.40;74.17
33554;BME280;19885;42.208;24.952;2023-04-06T00:25:43;99586.22;;;3.93;74.83
33554;BME280;19885;42.208;24.952;2023-04-06T00:28:08;99564.22;;;3.75;74.48
33554;BME280;19885;42.208;24.952;2023-04-06T00:30:34;99574.72;;;3.82;75.13
33554;BME280;19885;42.208;24.952;2023-04-06T00:32:59;99459.31;;;3.10;74.91
33554;BME280;19885;42.208;24.952;2023-04-06T00:35:25;99579.75;;;3.78;74.96
33554;BME280;19885;42.208;24.952;2023-04-06T00:37:51;99580.41;;;3.71;75.76
33554;BME280;19885;42.208;24.952;2023-04-06T00:40:17;99579.47;;;3.67;75.78
33554;BME280;19885;42.208;24.952;2023-04-06T00:42:43;99567.31;;;3.63;75.23
33554;BME280;19885;42.208;24.952;2023-04-06T00:45:09;99561.44;;;3.67;75.44
33554;BME280;19885;42.208;24.952;2023-04-06T00:47:35;99559.63;;;3.65;75.43
33554;BME280;19885;42.208;24.952;2023-04-06T00:50:01;99569.84;;;3.61;75.18
33554;BME280;19885;42.208;24.952;2023-04-06T00:52:27;99565.66;;;3.65;75.06
33554;BME280;19885;42.208;24.952;2023-04-06T00:54:53;99557.69;;;3.57;74.88
33554;BME280;19885;42.208;24.952;2023-04-06T00:57:18;99565.47;;;3.59;75.21
33554;BME280;19885;42.208;24.952;2023-04-06T00:59:45;99555.97;;;3.56;75.58
33554;BME280;19885;42.208;24.952;2023-04-06T01:02:10;99553.91;;;3.45;75.91
33554;BME280;19885;42.208;24.952;2023-04-06T01:04:36;99565.00;;;3.42;75.77
33554;BME280;19885;42.208;24.952;2023-04-06T01:07:01;99566.19;;;3.53;76.56
33554;BME280;19885;42.208;24.952;2023-04-06T01:09:28;99549.75;;;3.50;76.93
33554;BME280;19885;42.208;24.952;2023-04-06T01:11:55;99561.72;;;3.48;76.28
33554;BME280;19885;42.208;24.952;2023-04-06T01:14:21;99475.97;;;2.93;75.76
33554;BME280;19885;42.208;24.952;2023-04-06T01:16:47;99571.97;;;3.46;76.42
33554;BME280;19885;42.208;24.952;2023-04-06T01:19:13;99558.03;;;3.40;76.58
33554;BME280;19885;42.208;24.952;2023-04-06T01:21:39;99561.50;;;3.40;76.40
33554;BME280;19885;42.208;24.952;2023-04-06T01:24:06;99550.50;;;3.46;76.30
33554;BME280;19885;42.208;24.952;2023-04-06T01:26:32;99556.50;;;3.45;76.00
33554;BME280;19885;42.208;24.952;2023-04-06T01:28:58;99551.50;;;3.51;75.48
33554;BME280;19885;42.208;24.952;2023-04-06T01:31:24;99530.63;;;3.42;75.41
33554;BME280;19885;42.208;24.952;2023-04-06T01:33:50;99543.03;;;3.55;74.98
33554;BME280;19885;42.208;24.952;2023-04-06T01:36:16;99536.81;;;3.47;75.57
33554;BME280;19885;42.208;24.952;2023-04-06T01:38:42;99535.19;;;3.50;74.93
33554;BME280;19885;42.208;24.952;2023-04-06T01:41:08;99520.22;;;3.39;74.79
33554;BME280;19885;42.208;24.952;2023-04-06T01:43:34;99542.97;;;3.52;75.02
33554;BME280;19885;42.208;24.952;2023-04-06T01:45:59;99530.63;;;3.42;74.50
33554;BME280;19885;42.208;24.952;2023-04-06T01:48:26;99545.44;;;3.49;75.51
33554;BME280;19885;42.208;24.952;2023-04-06T01:50:52;99538.19;;;3.36;74.56
33554;BME280;19885;42.208;24.952;2023-04-06T01:53:17;99549.56;;;3.44;74.90
33554;BME280;19885;42.208;24.952;2023-04-06T01:55:43;99554.81;;;3.47;75.08
33554;BME280;19885;42.208;24.952;2023-04-06T01:58:08;99549.41;;;3.38;75.66
33554;BME280;19885;42.208;24.952;2023-04-06T02:00:34;99547.56;;;3.34;76.21
33554;BME280;19885;42.208;24.952;2023-04-06T02:03:00;99541.16;;;3.21;76.14
33554;BME280;19885;42.208;24.952;2023-04-06T02:05:26;99543.50;;;3.14;76.87
33554;BME280;19885;42.208;24.952;2023-04-06T02:07:51;99524.28;;;3.03;77.11
33554;BME280;19885;42.208;24.952;2023-04-06T02:10:17;99541.81;;;3.14;77.12
33554;BME280;19885;42.208;24.952;2023-04-06T02:12:43;99546.94;;;3.14;78.01
33554;BME280;19885;42.208;24.952;2023-04-06T02:15:09;99508.66;;;2.97;77.89
33554;BME280;19885;42.208;24.952;2023-04-06T02:17:34;99538.00;;;3.02;77.92
33554;BME280;19885;42.208;24.952;2023-04-06T02:20:00;99518.03;;;2.95;77.96
33554;BME280;19885;42.208;24.952;2023-04-06T02:22:25;99542.44;;;3.07;77.92
33554;BME280;19885;42.208;24.952;2023-04-06T02:24:51;99520.91;;;3.04;77.66
33554;BME280;19885;42.208;24.952;2023-04-06T02:27:16;99527.56;;;2.97;77.89
33554;BME280;19885;42.208;24.952;2023-04-06T02:29:42;99527.75;;;3.03;77.95
33554;BME280;19885;42.208;24.952;2023-04-06T02:32:07;99534.28;;;2.94;77.48
33554;BME280;19885;42.208;24.952;2023-04-06T02:34:33;99521.53;;;2.97;78.30
33554;BME280;19885;42.208;24.952;2023-04-06T02:36:58;99535.56;;;3.06;78.21
33554;BME280;19885;42.208;24.952;2023-04-06T02:39:24;99541.88;;;3.16;77.89
33554;BME280;19885;42.208;24.952;2023-04-06T02:41:50;99548.00;;;3.21;78.41
33554;BME280;19885;42.208;24.952;2023-04-06T02:44:15;99544.31;;;3.11;77.43
33554;BME280;19885;42.208;24.952;2023-04-06T02:46:41;99554.69;;;3.14;77.03
33554;BME280;19885;42.208;24.952;2023-04-06T02:49:06;99531.72;;;2.94;77.17
33554;BME280;19885;42.208;24.952;2023-04-06T02:51:32;99556.44;;;3.15;77.36
33554;BME280;19885;42.208;24.952;2023-04-06T02:53:58;99539.38;;;2.91;77.67
33554;BME280;19885;42.208;24.952;2023-04-06T02:56:24;99556.28;;;3.11;77.77
33554;BME280;19885;42.208;24.952;2023-04-06T02:58:50;99552.94;;;3.13;77.48
33554;BME280;19885;42.208;24.952;2023-04-06T03:01:15;99533.66;;;3.01;77.43
33554;BME280;19885;42.208;24.952;2023-04-06T03:03:41;99554.38;;;3.05;77.31
33554;BME280;19885;42.208;24.952;2023-04-06T03:06:06;99548.53;;;2.82;78.11
33554;BME280;19885;42.208;24.952;2023-04-06T03:08:32;99560.66;;;2.86;78.80
33554;BME280;19885;42.208;24.952;2023-04-06T03:10:58;99543.34;;;2.81;78.64
33554;BME280;19885;42.208;24.952;2023-04-06T03:13:23;99550.50;;;2.91;78.34
33554;BME280;19885;42.208;24.952;2023-04-06T03:15:49;99555.72;;;2.93;78.23
33554;BME280;19885;42.208;24.952;2023-04-06T03:18:14;99540.91;;;2.85;78.89
33554;BME280;19885;42.208;24.952;2023-04-06T03:20:40;99538.66;;;2.69;79.41
33554;BME280;19885;42.208;24.952;2023-04-06T03:23:05;99507.41;;;2.57;78.94
33554;BME280;19885;42.208;24.952;2023-04-06T03:25:31;99564.13;;;2.88;78.99
33554;BME280;19885;42.208;24.952;2023-04-06T03:27:56;99552.94;;;2.86;79.11
33554;BME280;19885;42.208;24.952;2023-04-06T03:30:22;99556.34;;;2.85;79.10
33554;BME280;19885;42.208;24.952;2023-04-06T03:32:47;99545.75;;;2.76;78.90
33554;BME280;19885;42.208;24.952;2023-04-06T03:35:13;99510.09;;;2.60;79.20
33554;BME280;19885;42.208;24.952;2023-04-06T03:37:38;99571.22;;;2.96;79.22
33554;BME280;19885;42.208;24.952;2023-04-06T03:40:04;99506.25;;;2.74;79.37
33554;BME280;19885;42.208;24.952;2023-04-06T03:42:30;99486.94;;;2.60;79.36
33554;BME280;19885;42.208;24.952;2023-04-06T03:44:58;99571.38;;;3.00;79.61
33554;BME280;19885;42.208;24.952;2023-04-06T03:47:24;99575.59;;;2.98;79.17
33554;BME280;19885;42.208;24.952;2023-04-06T03:49:50;99557.41;;;2.92;79.64
33554;BME280;19885;42.208;24.952;2023-04-06T03:52:15;99571.44;;;3.02;79.83
33554;BME280;19885;42.208;24.952;2023-04-06T03:54:41;99577.69;;;3.10;79.34
33554;BME280;19885;42.208;24.952;2023-04-06T03:57:06;99556.69;;;2.96;79.53
33554;BME280;19885;42.208;24.952;2023-04-06T03:59:32;99491.97;;;2.57;79.92
33554;BME280;19885;42.208;24.952;2023-04-06T04:01:58;99561.63;;;2.90;79.68
33554;BME280;19885;42.208;24.952;2023-04-06T04:04:23;99559.22;;;2.95;79.58
33554;BME280;19885;42.208;24.952;2023-04-06T04:06:48;99564.47;;;3.26;79.12
33554;BME280;19885;42.208;24.952;2023-04-06T04:09:14;99581.53;;;3.50;79.38
33554;BME280;19885;42.208;24.952;2023-04-06T04:11:40;99569.69;;;3.57;78.72
33554;BME280;19885;42.208;24.952;2023-04-06T04:14:05;99573.00;;;3.51;78.84
33554;BME280;19885;42.208;24.952;2023-04-06T04:16:31;99582.50;;;3.54;78.92
33554;BME280;19885;42.208;24.952;2023-04-06T04:18:56;99594.47;;;3.52;79.37
33554;BME280;19885;42.208;24.952;2023-04-06T04:21:23;99573.56;;;3.71;78.33
33554;BME280;19885;42.208;24.952;2023-04-06T04:23:49;99572.75;;;3.72;78.42
33554;BME280;19885;42.208;24.952;2023-04-06T04:26:14;99589.00;;;3.71;78.85
33554;BME280;19885;42.208;24.952;2023-04-06T04:28:40;99587.44;;;3.76;78.56
33554;BME280;19885;42.208;24.952;2023-04-06T04:31:06;99569.94;;;3.65;78.71
33554;BME280;19885;42.208;24.952;2023-04-06T04:33:31;99585.25;;;3.88;79.20
33554;BME280;19885;42.208;24.952;2023-04-06T04:35:57;99595.34;;;4.12;77.88
33554;BME280;19885;42.208;24.952;2023-04-06T04:38:22;99586.41;;;3.99;77.63
33554;BME280;19885;42.208;24.952;2023-04-06T04:40:48;99584.78;;;4.03;77.47
33554;BME280;19885;42.208;24.952;2023-04-06T04:43:13;99548.16;;;4.14;77.14
33554;BME280;19885;42.208;24.952;2023-04-06T04:45:39;99496.25;;;4.02;77.07
33554;BME280;19885;42.208;24.952;2023-04-06T04:48:04;99502.66;;;4.16;76.49
33554;BME280;19885;42.208;24.952;2023-04-06T04:50:31;99592.19;;;4.55;76.66
33554;BME280;19885;42.208;24.952;2023-04-06T04:52:56;99587.47;;;4.71;76.22
33554;BME280;19885;42.208;24.952;2023-04-06T04:55:22;99577.34;;;4.79;75.76
33554;BME280;19885;42.208;24.952;2023-04-06T04:57:47;99564.03;;;4.64;74.04
33554;BME280;19885;42.208;24.952;2023-04-06T05:00:13;99496.00;;;4.24;75.61
33554;BME280;19885;42.208;24.952;2023-04-06T05:02:39;99513.53;;;4.38;74.43
33554;BME280;19885;42.208;24.952;2023-04-06T05:05:04;99490.09;;;4.28;74.84
33554;BME280;19885;42.208;24.952;2023-04-06T05:07:30;99574.47;;;4.68;73.82
33554;BME280;19885;42.208;24.952;2023-04-06T05:09:56;99566.03;;;4.74;73.70
33554;BME280;19885;42.208;24.952;2023-04-06T05:12:22;99544.25;;;4.63;74.81
33554;BME280;19885;42.208;24.952;2023-04-06T05:14:47;99574.91;;;4.85;74.14
33554;BME280;19885;42.208;24.952;2023-04-06T05:17:13;99564.47;;;4.80;74.33
33554;BME280;19885;42.208;24.952;2023-04-06T05:19:38;99569.25;;;4.99;74.23
33554;BME280;19885;42.208;24.952;2023-04-06T05:22:07;99538.34;;;4.68;72.91
33554;BME280;19885;42.208;24.952;2023-04-06T05:24:33;99566.47;;;4.92;73.96
33554;BME280;19885;42.208;24.952;2023-04-06T05:27:00;99544.06;;;4.91;75.33
33554;BME280;19885;42.208;24.952;2023-04-06T05:29:26;99578.72;;;5.00;73.41
33554;BME280;19885;42.208;24.952;2023-04-06T05:31:52;99546.28;;;4.74;74.10
33554;BME280;19885;42.208;24.952;2023-04-06T05:34:17;99563.53;;;5.13;75.65
33554;BME280;19885;42.208;24.952;2023-04-06T05:36:43;99558.31;;;5.11;74.84
33554;BME280;19885;42.208;24.952;2023-04-06T05:39:10;99558.00;;;5.33;74.62
33554;BME280;19885;42.208;24.952;2023-04-06T05:41:37;99528.56;;;5.27;74.02
33554;BME280;19885;42.208;24.952;2023-04-06T05:44:03;99558.59;;;5.60;74.29
33554;BME280;19885;42.208;24.952;2023-04-06T05:46:29;99553.41;;;5.60;73.12
33554;BME280;19885;42.208;24.952;2023-04-06T05:48:54;99558.28;;;5.47;72.88
33554;BME280;19885;42.208;24.952;2023-04-06T05:51:21;99527.97;;;5.38;72.26
33554;BME280;19885;42.208;24.952;2023-04-06T05:53:47;99540.22;;;5.47;73.09
33554;BME280;19885;42.208;24.952;2023-04-06T05:56:12;99549.13;;;5.61;73.95
33554;BME280;19885;42.208;24.952;2023-04-06T05:58:38;99554.09;;;5.92;73.04
33554;BME280;19885;42.208;24.952;2023-04-06T06:01:04;99513.75;;;6.00;71.20
33554;BME280;19885;42.208;24.952;2023-04-06T06:03:30;99541.72;;;6.67;70.45
33554;BME280;19885;42.208;24.952;2023-04-06T06:06:03;99528.59;;;7.13;68.54
33554;BME280;19885;42.208;24.952;2023-04-06T06:08:30;99520.44;;;7.45;66.89
33554;BME280;19885;42.208;24.952;2023-04-06T06:10:56;99539.78;;;7.71;66.18
33554;BME280;19885;42.208;24.952;2023-04-06T06:13:25;99531.47;;;7.98;66.26
33554;BME280;19885;42.208;24.952;2023-04-06T06:15:50;99543.38;;;7.79;65.50
33554;BME280;19885;42.208;24.952;2023-04-06T06:18:16;99531.22;;;7.78;66.06
33554;BME280;19885;42.208;24.952;2023-04-06T06:20:42;99533.06;;;7.85;64.89
33554;BME280;19885;42.208;24.952;2023-04-06T06:23:07;99529.47;;;7.77;65.38
33554;BME280;19885;42.208;24.952;2023-04-06T06:25:33;99524.00;;;7.53;64.53
33554;BME280;19885;42.208;24.952;2023-04-06T06:27:59;99528.97;;;7.38;65.72
33554;BME280;19885;42.208;24.952;2023-04-06T06:30:25;99529.94;;;7.46;67.24
33554;BME280;19885;42.208;24.952;2023-04-06T06:32:51;99533.34;;;7.40;65.65
33554;BME280;19885;42.208;24.952;2023-04-06T06:35:17;99513.72;;;6.99;67.24
33554;BME280;19885;42.208;24.952;2023-04-06T06:37:43;99519.88;;;7.05;66.22
33554;BME280;19885;42.208;24.952;2023-04-06T06:40:09;99533.94;;;7.22;65.87
33554;BME280;19885;42.208;24.952;2023-04-06T06:42:35;99527.91;;;7.24;66.59
33554;BME280;19885;42.208;24.952;2023-04-06T06:45:01;99406.97;;;6.61;66.73
33554;BME280;19885;42.208;24.952;2023-04-06T06:47:27;99538.53;;;7.43;65.80
33554;BME280;19885;42.208;24.952;2023-04-06T06:49:52;99543.25;;;7.73;64.67
33554;BME280;19885;42.208;24.952;2023-04-06T06:52:18;99528.53;;;7.70;65.70
33554;BME280;19885;42.208;24.952;2023-04-06T06:54:45;99534.09;;;8.01;66.20
33554;BME280;19885;42.208;24.952;2023-04-06T06:57:10;99524.72;;;8.13;66.03
33554;BME280;19885;42.208;24.952;2023-04-06T06:59:36;99454.97;;;7.61;65.58
33554;BME280;19885;42.208;24.952;2023-04-06T07:02:01;99525.94;;;7.69;65.03
33554;BME280;19885;42.208;24.952;2023-04-06T07:04:27;99519.03;;;7.71;65.98
33554;BME280;19885;42.208;24.952;2023-04-06T07:06:52;99526.75;;;7.65;66.28
33554;BME280;19885;42.208;24.952;2023-04-06T07:09:18;99527.25;;;8.09;66.55
33554;BME280;19885;42.208;24.952;2023-04-06T07:11:44;99512.59;;;8.12;65.30
33554;BME280;19885;42.208;24.952;2023-04-06T07:14:10;99509.13;;;8.13;65.03
33554;BME280;19885;42.208;24.952;2023-04-06T07:16:37;99527.56;;;8.33;66.43
33554;BME280;19885;42.208;24.952;2023-04-06T07:19:02;99524.75;;;8.18;65.49
33554;BME280;19885;42.208;24.952;2023-04-06T07:21:28;99459.81;;;8.10;65.95
33554;BME280;19885;42.208;24.952;2023-04-06T07:23:53;99498.41;;;8.64;65.90
33554;BME280;19885;42.208;24.952;2023-04-06T07:26:19;99501.06;;;8.69;64.06
33554;BME280;19885;42.208;24.952;2023-04-06T07:28:45;99515.97;;;8.92;64.59
33554;BME280;19885;42.208;24.952;2023-04-06T07:31:10;99510.81;;;8.98;64.73
33554;BME280;19885;42.208;24.952;2023-04-06T07:33:36;99515.13;;;8.95;63.31
33554;BME280;19885;42.208;24.952;2023-04-06T07:36:02;99518.75;;;9.21;63.14
33554;BME280;19885;42.208;24.952;2023-04-06T07:38:27;99502.38;;;9.32;62.15
33554;BME280;19885;42.208;24.952;2023-04-06T07:40:53;99524.06;;;9.38;62.40
33554;BME280;19885;42.208;24.952;2023-04-06T07:43:19;99513.63;;;9.30;61.31
33554;BME280;19885;42.208;24.952;2023-04-06T07:45:45;99506.72;;;9.35;62.05
33554;BME280;19885;42.208;24.952;2023-04-06T07:48:11;99515.28;;;9.19;62.89
33554;BME280;19885;42.208;24.952;2023-04-06T07:50:36;99510.19;;;9.39;62.38
33554;BME280;19885;42.208;24.952;2023-04-06T07:53:02;99521.56;;;9.59;62.16
33554;BME280;19885;42.208;24.952;2023-04-06T07:55:28;99507.72;;;9.64;64.10
33554;BME280;19885;42.208;24.952;2023-04-06T07:57:53;99518.06;;;9.49;61.79
33554;BME280;19885;42.208;24.952;2023-04-06T08:00:19;99508.53;;;9.50;62.90
33554;BME280;19885;42.208;24.952;2023-04-06T08:02:45;99522.56;;;9.86;63.98
33554;BME280;19885;42.208;24.952;2023-04-06T08:05:11;99509.50;;;9.71;61.63
33554;BME280;19885;42.208;24.952;2023-04-06T08:07:36;99517.28;;;9.68;60.95
33554;BME280;19885;42.208;24.952;2023-04-06T08:10:02;99501.72;;;9.74;62.53
33554;BME280;19885;42.208;24.952;2023-04-06T08:12:28;99508.72;;;9.93;63.69
33554;BME280;19885;42.208;24.952;2023-04-06T08:14:54;99501.88;;;10.17;61.28
33554;BME280;19885;42.208;24.952;2023-04-06T08:17:19;99490.59;;;10.19;60.60
33554;BME280;19885;42.208;24.952;2023-04-06T08:19:45;99503.63;;;10.30;61.13
33554;BME280;19885;42.208;24.952;2023-04-06T08:22:11;99503.69;;;10.60;61.20
33554;BME280;19885;42.208;24.952;2023-04-06T08:24:37;99502.81;;;10.73;58.93
33554;BME280;19885;42.208;24.952;2023-04-06T08:27:03;99508.03;;;10.82;60.30
33554;BME280;19885;42.208;24.952;2023-04-06T08:29:29;99501.94;;;10.68;58.60
33554;BME280;19885;42.208;24.952;2023-04-06T08:31:54;99507.16;;;10.60;57.67
33554;BME280;19885;42.208;24.952;2023-04-06T08:34:21;99501.94;;;10.98;61.31
33554;BME280;19885;42.208;24.952;2023-04-06T08:36:46;99507.16;;;11.01;59.08
33554;BME280;19885;42.208;24.952;2023-04-06T08:39:12;99477.59;;;11.04;59.01
33554;BME280;19885;42.208;24.952;2023-04-06T08:41:38;99497.50;;;11.36;59.39
33554;BME280;19885;42.208;24.952;2023-04-06T08:44:06;99505.31;;;11.56;59.72
33554;BME280;19885;42.208;24.952;2023-04-06T08:46:32;99486.91;;;11.97;57.37
33554;BME280;19885;42.208;24.952;2023-04-06T08:48:59;99486.00;;;11.95;56.99
33554;BME280;19885;42.208;24.952;2023-04-06T08:51:25;99485.97;;;11.99;55.72
33554;BME280;19885;42.208;24.952;2023-04-06T08:53:53;99495.69;;;11.61;54.45
33554;BME280;19885;42.208;24.952;2023-04-06T08:56:25;99493.97;;;11.54;55.30
33554;BME280;19885;42.208;24.952;2023-04-06T08:58:52;99486.97;;;11.80;57.10
33554;BME280;19885;42.208;24.952;2023-04-06T09:01:21;99474.78;;;11.78;55.63
33554;BME280;19885;42.208;24.952;2023-04-06T09:03:49;99475.34;;;12.31;56.66
33554;BME280;19885;42.208;24.952;2023-04-06T09:06:16;99473.72;;;12.13;55.78
33554;BME280;19885;42.208;24.952;2023-04-06T09:08:42;99462.28;;;12.31;56.41
33554;BME280;19885;42.208;24.952;2023-04-06T09:11:08;99469.09;;;12.53;54.82
33554;BME280;19885;42.208;24.952;2023-04-06T09:13:50;99461.94;;;12.78;53.75
33554;BME280;19885;42.208;24.952;2023-04-06T09:16:17;99460.53;;;13.32;54.39
33554;BME280;19885;42.208;24.952;2023-04-06T09:18:43;99451.66;;;13.45;55.04
33554;BME280;19885;42.208;24.952;2023-04-06T09:21:09;99457.00;;;13.36;55.04
33554;BME280;19885;42.208;24.952;2023-04-06T09:23:35;99448.47;;;13.22;53.44
33554;BME280;19885;42.208;24.952;2023-04-06T09:26:12;99451.81;;;13.33;54.05
33554;BME280;19885;42.208;24.952;2023-04-06T09:28:53;99441.63;;;13.03;52.62
33554;BME280;19885;42.208;24.952;2023-04-06T09:31:29;99370.28;;;12.88;53.54
33554;BME280;19885;42.208;24.952;2023-04-06T09:33:56;99343.91;;;12.25;51.59
33554;BME280;19885;42.208;24.952;2023-04-06T09:36:33;99442.59;;;12.94;55.09
33554;BME280;19885;42.208;24.952;2023-04-06T09:39:01;99438.84;;;13.22;54.65
33554;BME280;19885;42.208;24.952;2023-04-06T09:41:36;99432.56;;;13.37;55.69
33554;BME280;19885;42.208;24.952;2023-04-06T09:44:06;99426.84;;;13.76;51.41
33554;BME280;19885;42.208;24.952;2023-04-06T09:46:34;99438.38;;;13.62;52.18
33554;BME280;19885;42.208;24.952;2023-04-06T09:49:02;99421.78;;;13.64;52.97
33554;BME280;19885;42.208;24.952;2023-04-06T09:51:36;99424.91;;;13.89;51.24
33554;BME280;19885;42.208;24.952;2023-04-06T09:54:02;99422.63;;;13.63;52.34
33554;BME280;19885;42.208;24.952;2023-04-06T09:56:53;99436.75;;;14.15;51.69
33554;BME280;19885;42.208;24.952;2023-04-06T10:02:05;99421.56;;;13.79;49.04
33554;BME280;19885;42.208;24.952;2023-04-06T10:04:50;99410.66;;;14.09;51.77
33554;BME280;19885;42.208;24.952;2023-04-06T10:07:19;99396.84;;;13.98;50.63
33554;BME280;19885;42.208;24.952;2023-04-06T10:09:46;99399.16;;;14.19;52.00
33554;BME280;19885;42.208;24.952;2023-04-06T10:12:12;99404.41;;;14.19;49.97
33554;BME280;19885;42.208;24.952;2023-04-06T10:14:39;99345.84;;;13.64;48.81
33554;BME280;19885;42.208;24.952;2023-04-06T10:17:06;99420.13;;;14.18;51.32
33554;BME280;19885;42.208;24.952;2023-04-06T10:22:05;99405.56;;;14.00;51.24
33554;BME280;19885;42.208;24.952;2023-04-06T10:24:31;99391.47;;;14.07;51.52
33554;BME280;19885;42.208;24.952;2023-04-06T10:27:01;99398.03;;;14.36;51.85
33554;BME280;19885;42.208;24.952;2023-04-06T10:29:27;99401.41;;;14.44;50.48
33554;BME280;19885;42.208;24.952;2023-04-06T10:31:53;99398.19;;;14.77;49.61
33554;BME280;19885;42.208;24.952;2023-04-06T10:34:20;99384.31;;;14.72;49.18
33554;BME280;19885;42.208;24.952;2023-04-06T10:36:46;99380.78;;;14.73;52.16
33554;BME280;19885;42.208;24.952;2023-04-06T10:39:12;99373.66;;;14.81;48.46
33554;BME280;19885;42.208;24.952;2023-04-06T10:41:42;99356.00;;;14.42;47.53
33554;BME280;19885;42.208;24.952;2023-04-06T10:44:17;99361.97;;;14.97;49.44
33554;BME280;19885;42.208;24.952;2023-04-06T10:46:56;99344.56;;;14.93;49.58
33554;BME280;19885;42.208;24.952;2023-04-06T10:49:21;99354.97;;;14.99;50.52
33554;BME280;19885;42.208;24.952;2023-04-06T10:51:54;99365.75;;;15.27;47.61
33554;BME280;19885;42.208;24.952;2023-04-06T10:54:21;99357.69;;;15.36;46.78
33554;BME280;19885;42.208;24.952;2023-04-06T10:56:47;99305.88;;;14.60;47.00
33554;BME280;19885;42.208;24.952;2023-04-06T10:59:18;99356.16;;;14.81;48.51
33554;BME280;19885;42.208;24.952;2023-04-06T11:01:44;99354.72;;;14.64;47.28
33554;BME280;19885;42.208;24.952;2023-04-06T11:04:10;99339.97;;;15.04;49.33
33554;BME280;19885;42.208;24.952;2023-04-06T11:06:40;99359.75;;;15.20;50.42
33554;BME280;19885;42.208;24.952;2023-04-06T11:09:06;99348.81;;;15.41;47.48
33554;BME280;19885;42.208;24.952;2023-04-06T11:11:31;99340.00;;;15.45;45.56
33554;BME280;19885;42.208;24.952;2023-04-06T11:13:59;99341.47;;;15.58;46.45
33554;BME280;19885;42.208;24.952;2023-04-06T11:16:27;99329.78;;;15.32;47.25
33554;BME280;19885;42.208;24.952;2023-04-06T11:21:42;99341.47;;;15.58;44.49
33554;BME280;19885;42.208;24.952;2023-04-06T11:24:18;99334.75;;;15.45;43.67
33554;BME280;19885;42.208;24.952;2023-04-06T11:26:46;99325.19;;;15.44;45.56
33554;BME280;19885;42.208;24.952;2023-04-06T11:29:15;99328.34;;;15.58;45.32
33554;BME280;19885;42.208;24.952;2023-04-06T11:31:46;99338.00;;;15.56;43.28
33554;BME280;19885;42.208;24.952;2023-04-06T11:34:17;99321.16;;;15.66;43.57
33554;BME280;19885;42.208;24.952;2023-04-06T11:36:44;99322.16;;;15.62;43.12
33554;BME280;19885;42.208;24.952;2023-04-06T11:39:11;99285.47;;;15.56;44.18
33554;BME280;19885;42.208;24.952;2023-04-06T11:41:40;99326.88;;;15.85;44.28
33554;BME280;19885;42.208;24.952;2023-04-06T11:44:06;99309.47;;;15.80;42.11
33554;BME280;19885;42.208;24.952;2023-04-06T11:46:32;99276.56;;;15.24;43.90
33554;BME280;19885;42.208;24.952;2023-04-06T11:48:59;99319.41;;;15.24;46.89
33554;BME280;19885;42.208;24.952;2023-04-06T11:51:26;99309.47;;;15.40;43.25
33554;BME280;19885;42.208;24.952;2023-04-06T11:53:55;99321.94;;;15.29;43.42
33554;BME280;19885;42.208;24.952;2023-04-06T11:56:39;99293.78;;;14.95;43.41
33554;BME280;19885;42.208;24.952;2023-04-06T11:59:05;99293.31;;;15.18;42.49
33554;BME280;19885;42.208;24.952;2023-04-06T12:01:30;99271.59;;;14.69;40.46
33554;BME280;19885;42.208;24.952;2023-04-06T12:03:56;99287.47;;;15.04;44.04
33554;BME280;19885;42.208;24.952;2023-04-06T12:06:22;99269.56;;;14.83;41.27
33554;BME280;19885;42.208;24.952;2023-04-06T12:08:48;99283.94;;;15.07;40.64
33554;BME280;19885;42.208;24.952;2023-04-06T12:11:14;99288.78;;;15.25;43.80
33554;BME280;19885;42.208;24.952;2023-04-06T12:13:39;99291.94;;;15.42;42.23
33554;BME280;19885;42.208;24.952;2023-04-06T12:16:05;99283.81;;;15.13;41.81
33554;BME280;19885;42.208;24.952;2023-04-06T12:18:31;99285.97;;;14.94;41.45
33554;BME280;19885;42.208;24.952;2023-04-06T12:20:56;99295.28;;;15.07;42.17
33554;BME280;19885;42.208;24.952;2023-04-06T12:23:22;99303.88;;;15.15;42.44
33554;BME280;19885;42.208;24.952;2023-04-06T12:25:47;99307.06;;;15.29;42.83
33554;BME280;19885;42.208;24.952;2023-04-06T12:28:13;99293.66;;;15.44;42.76
33554;BME280;19885;42.208;24.952;2023-04-06T12:30:38;99257.72;;;15.46;41.71
33554;BME280;19885;42.208;24.952;2023-04-06T12:33:06;99296.72;;;15.23;42.28
33554;BME280;19885;42.208;24.952;2023-04-06T12:35:35;99209.88;;;14.94;41.04
33554;BME280;19885;42.208;24.952;2023-04-06T12:38:02;99275.19;;;15.06;39.78
33554;BME280;19885;42.208;24.952;2023-04-06T12:40:27;99275.81;;;14.76;39.74
33554;BME280;19885;42.208;24.952;2023-04-06T16:51:39;99349.91;;;10.90;49.38
33554;BME280;19885;42.208;24.952;2023-04-06T16:54:05;99354.19;;;11.00;49.92
33554;BME280;19885;42.208;24.952;2023-04-06T16:56:31;99367.19;;;11.11;50.30
33554;BME280;19885;42.208;24.952;2023-04-06T16:58:56;99352.50;;;10.89;48.44
33554;BME280;19885;42.208;24.952;2023-04-06T17:01:24;99285.72;;;10.41;49.28
33554;BME280;19885;42.208;24.952;2023-04-06T17:03:50;99369.88;;;10.82;49.12
33554;BME280;19885;42.208;24.952;2023-04-06T17:06:16;99337.78;;;10.69;50.07
33554;BME280;19885;42.208;24.952;2023-04-06T17:08:43;99368.19;;;10.67;50.33
33554;BME280;19885;42.208;24.952;2023-04-06T17:11:09;99376.00;;;10.73;49.59